Florimax — CUMI8 — position and weather

sailwx.info

Track history (hours):
 
Tides and Currents Weather Stations Pressure Air Temp Water Temp Dewpoint Dewpoint Depression Visibility Wind Speed Wind Dir Waves Ship Positions

Florimax

Last reported at 2017-Sep-14 08:39 UTC. Time now 2017-Sep-19 13:34 UTC.
Position N 37°57' W 008°52'.

Length 24 m.

Type: Fishing. MMSI: 263412470.

Date/timePositionNaut miles runAvg speedWind from/ knotsBaromVisibWave heightAir tempDewpointWater temp
2017-Sep-14 08:39N 37°57' W 008°52'0 0.0
2017-Sep-14 08:31N 37°57' W 008°52'0 0.0
2017-Sep-14 08:01N 37°57' W 008°52'0 0.1
2017-Sep-14 07:31N 37°57' W 008°52'1 2.7
2017-Sep-14 07:00N 37°56' W 008°53'4 8.8
2017-Sep-14 06:31N 37°58' W 008°59'4 8.9
2017-Sep-14 06:01N 37°60' W 009°04'5 9.5
2017-Sep-14 05:31N 38°02' W 009°09'1 2.7
2017-Sep-14 05:00N 38°02' W 009°10'1 3.0
2017-Sep-14 04:30N 38°01' W 009°11'2 3.1
2017-Sep-14 04:01N 37°60' W 009°12'1 3.0
2017-Sep-14 03:31N 37°59' W 009°13'1 2.9
2017-Sep-14 03:01N 37°57' W 009°14'2 3.6
2017-Sep-14 02:21N 37°55' W 009°14'0 0.8
2017-Sep-14 02:00N 37°55' W 009°14'1 1.6
2017-Sep-14 01:24N 37°56' W 009°14'1 3.1
2017-Sep-14 01:00N 37°57' W 009°14'2 3.1
2017-Sep-14 00:29N 37°58' W 009°13'1 3.1
2017-Sep-14 00:01N 37°60' W 009°13'2 3.1
2017-Sep-13 23:31N 38°01' W 009°12'2 3.0
2017-Sep-13 23:00N 38°02' W 009°11'1 2.4
2017-Sep-13 22:30N 38°03' W 009°10'0 0.2
2017-Sep-13 22:00N 38°03' W 009°10'1 3.0
2017-Sep-13 21:30N 38°02' W 009°11'1 2.9
2017-Sep-13 21:01N 38°01' W 009°12'1 2.9
2017-Sep-13 20:31N 37°60' W 009°13'1 2.8
2017-Sep-13 20:00N 37°58' W 009°14'1 2.9
2017-Sep-13 19:31N 37°57' W 009°14'  
2017-Sep-09 00:29N 37°57' W 008°52'2 4.4
2017-Sep-09 00:00N 37°56' W 008°54'4 8.0
2017-Sep-08 23:30N 37°56' W 008°59'4 7.6
2017-Sep-08 23:00N 37°55' W 009°04'4 7.7
2017-Sep-08 22:30N 37°55' W 009°09'4 7.7
2017-Sep-08 21:56N 37°55' W 009°15'1 1.3
2017-Sep-08 21:30N 37°55' W 009°14'1 2.6
2017-Sep-08 21:00N 37°57' W 009°14'2 3.1
2017-Sep-08 20:30N 37°58' W 009°14'2 4.2
2017-Sep-08 20:00N 37°60' W 009°13'2 5.0
2017-Sep-08 19:30N 38°02' W 009°11'4 7.7
2017-Sep-08 19:00N 38°06' W 009°11'4 8.4
2017-Sep-08 18:30N 38°10' W 009°10'4 7.4
2017-Sep-08 18:00N 38°14' W 009°09'4 7.5
2017-Sep-08 17:30N 38°17' W 009°08'4 7.3
2017-Sep-08 16:59N 38°21' W 009°07'3 6.7
2017-Sep-08 16:30N 38°24' W 009°07'2 3.6
2017-Sep-08 16:00N 38°26' W 009°07'0 0.0
2017-Sep-08 15:30N 38°26' W 009°07'0 0.0
2017-Sep-07 16:16N 38°26' W 009°07'0 0.0
2017-Sep-07 16:00N 38°26' W 009°07'0 0.0
2017-Sep-07 10:13N 38°26' W 009°07'0 0.0
2017-Sep-07 10:00N 38°26' W 009°07'0 0.0
2017-Sep-07 09:27N 38°26' W 009°07'0 0.0
2017-Sep-07 09:00N 38°26' W 009°07'0 0.0
2017-Sep-07 08:26N 38°26' W 009°07'0 0.0
2017-Sep-07 07:59N 38°26' W 009°07'0 0.0
2017-Sep-07 07:29N 38°26' W 009°07'19 0.5
2017-Sep-05 20:37N 38°08' W 008°59'2 8.3
2017-Sep-05 20:23N 38°06' W 008°58'3 7.9
2017-Sep-05 20:00N 38°03' W 008°57'4 7.8
2017-Sep-05 19:31N 37°60' W 008°55'4 7.6
2017-Sep-05 19:01N 37°56' W 008°54'1 2.8
2017-Sep-05 18:30N 37°57' W 008°52'0 0.0
2017-Sep-05 18:01N 37°57' W 008°52'0 0.0
2017-Sep-05 17:30N 37°57' W 008°52'2 3.5
2017-Sep-05 17:00N 37°56' W 008°54'4 9.0
2017-Sep-05 16:30N 37°56' W 008°60'4 8.6
2017-Sep-05 16:01N 37°57' W 009°05'4 8.5
2017-Sep-05 15:30N 37°57' W 009°11'3 4.9
2017-Sep-05 15:00N 37°58' W 009°14'1 1.7
2017-Sep-05 14:30N 37°57' W 009°14'2 2.8
2017-Sep-05 13:44N 37°55' W 009°14'1 2.8
2017-Sep-05 13:29N 37°54' W 009°14'1 2.8
2017-Sep-05 13:00N 37°53' W 009°14'1 2.8
2017-Sep-05 12:30N 37°51' W 009°15'3 2.8
2017-Sep-05 11:35N 37°49' W 009°15'0 2.8
2017-Sep-05 11:28N 37°48' W 009°15'1 2.8
2017-Sep-05 10:59N 37°47' W 009°15'1 0.5
2017-Sep-05 09:38N 37°46' W 009°15'1 2.9
2017-Sep-05 09:27N 37°47' W 009°15'1 2.9
2017-Sep-05 09:00N 37°48' W 009°15'5 1.0
2017-Sep-05 03:48N 37°47' W 009°09'1 3.4
2017-Sep-05 03:30N 37°48' W 009°09'2 3.7
2017-Sep-05 03:01N 37°50' W 009°09'2 3.9
2017-Sep-05 02:31N 37°52' W 009°09'2 3.7
2017-Sep-05 02:00N 37°54' W 009°09'2 3.4
2017-Sep-05 01:31N 37°56' W 009°09'2 3.7
2017-Sep-05 01:01N 37°58' W 009°09'2 3.9
2017-Sep-05 00:30N 37°60' W 009°09'2 3.9
2017-Sep-05 00:01N 38°02' W 009°09'2 4.0
2017-Sep-04 23:30N 38°04' W 009°09'0 0.5
2017-Sep-04 23:00N 38°04' W 009°10'1 1.6
2017-Sep-04 22:31N 38°03' W 009°10'1 2.9
2017-Sep-04 22:00N 38°02' W 009°11'1 2.9
2017-Sep-04 21:31N 38°00' W 009°12'1 3.0
2017-Sep-04 21:01N 37°59' W 009°13'1 3.0
2017-Sep-04 20:31N 37°58' W 009°14'2 3.0
2017-Sep-04 20:00N 37°56' W 009°14'2 3.8
2017-Sep-04 19:31N 37°54' W 009°15'2 4.7
2017-Sep-04 19:00N 37°57' W 009°13'3 5.2
2017-Sep-04 18:31N 37°59' W 009°13'0 0.8
2017-Sep-04 18:01N 37°59' W 009°13'1 2.7
2017-Sep-04 17:31N 37°58' W 009°14'1 2.7
2017-Sep-04 17:00N 37°56' W 009°14'2 2.7
2017-Sep-04 16:27N 37°55' W 009°14'1 2.8
2017-Sep-04 16:00N 37°54' W 009°14'1 2.8
2017-Sep-04 15:30N 37°52' W 009°14'1 2.9
2017-Sep-04 15:00N 37°51' W 009°15'1 0.8
2017-Sep-04 14:13N 37°51' W 009°15'1 2.8
2017-Sep-04 13:59N 37°52' W 009°15'1 2.8
2017-Sep-04 13:30N 37°53' W 009°15'1 2.8
2017-Sep-04 13:00N 37°55' W 009°15'3 3.3
2017-Sep-04 12:13N 37°57' W 009°15'0 1.9
2017-Sep-04 12:01N 37°57' W 009°14'0 0.9
2017-Sep-04 11:30N 37°57' W 009°14'3 3.0
2017-Sep-04 10:28N 37°54' W 009°14'1 3.0
2017-Sep-04 10:00N 37°52' W 009°14'1 2.9
2017-Sep-04 09:29N 37°51' W 009°15'2 2.9
2017-Sep-04 08:44N 37°49' W 009°15'  
Track history (hours):
 
Tides and Currents Weather Stations Pressure Air Temp Water Temp Dewpoint Dewpoint Depression Visibility Wind Speed Wind Dir Waves Ship Positions

Florimax

Last reported at 2017-Sep-14 08:39 UTC. Time now 2017-Sep-19 13:34 UTC.
Position N 37°57' W 008°52'.

Length 24 m.

Type: Fishing. MMSI: 263412470.

Date/timePositionNaut miles runAvg speedWind from/ knotsBaromVisibWave heightAir tempDewpointWater temp
2017-Sep-14 08:39N 37°57' W 008°52'0 0.0
2017-Sep-14 08:31N 37°57' W 008°52'0 0.0
2017-Sep-14 08:01N 37°57' W 008°52'0 0.1
2017-Sep-14 07:31N 37°57' W 008°52'1 2.7
2017-Sep-14 07:00N 37°56' W 008°53'4 8.8
2017-Sep-14 06:31N 37°58' W 008°59'4 8.9
2017-Sep-14 06:01N 37°60' W 009°04'5 9.5
2017-Sep-14 05:31N 38°02' W 009°09'1 2.7
2017-Sep-14 05:00N 38°02' W 009°10'1 3.0
2017-Sep-14 04:30N 38°01' W 009°11'2 3.1
2017-Sep-14 04:01N 37°60' W 009°12'1 3.0
2017-Sep-14 03:31N 37°59' W 009°13'1 2.9
2017-Sep-14 03:01N 37°57' W 009°14'2 3.6
2017-Sep-14 02:21N 37°55' W 009°14'0 0.8
2017-Sep-14 02:00N 37°55' W 009°14'1 1.6
2017-Sep-14 01:24N 37°56' W 009°14'1 3.1
2017-Sep-14 01:00N 37°57' W 009°14'2 3.1
2017-Sep-14 00:29N 37°58' W 009°13'1 3.1
2017-Sep-14 00:01N 37°60' W 009°13'2 3.1
2017-Sep-13 23:31N 38°01' W 009°12'2 3.0
2017-Sep-13 23:00N 38°02' W 009°11'1 2.4
2017-Sep-13 22:30N 38°03' W 009°10'0 0.2
2017-Sep-13 22:00N 38°03' W 009°10'1 3.0
2017-Sep-13 21:30N 38°02' W 009°11'1 2.9
2017-Sep-13 21:01N 38°01' W 009°12'1 2.9
2017-Sep-13 20:31N 37°60' W 009°13'1 2.8
2017-Sep-13 20:00N 37°58' W 009°14'1 2.9
2017-Sep-13 19:31N 37°57' W 009°14'  
2017-Sep-09 00:29N 37°57' W 008°52'2 4.4
2017-Sep-09 00:00N 37°56' W 008°54'4 8.0
2017-Sep-08 23:30N 37°56' W 008°59'4 7.6
2017-Sep-08 23:00N 37°55' W 009°04'4 7.7
2017-Sep-08 22:30N 37°55' W 009°09'4 7.7
2017-Sep-08 21:56N 37°55' W 009°15'1 1.3
2017-Sep-08 21:30N 37°55' W 009°14'1 2.6
2017-Sep-08 21:00N 37°57' W 009°14'2 3.1
2017-Sep-08 20:30N 37°58' W 009°14'2 4.2
2017-Sep-08 20:00N 37°60' W 009°13'2 5.0
2017-Sep-08 19:30N 38°02' W 009°11'4 7.7
2017-Sep-08 19:00N 38°06' W 009°11'4 8.4
2017-Sep-08 18:30N 38°10' W 009°10'4 7.4
2017-Sep-08 18:00N 38°14' W 009°09'4 7.5
2017-Sep-08 17:30N 38°17' W 009°08'4 7.3
2017-Sep-08 16:59N 38°21' W 009°07'3 6.7
2017-Sep-08 16:30N 38°24' W 009°07'2 3.6
2017-Sep-08 16:00N 38°26' W 009°07'0 0.0
2017-Sep-08 15:30N 38°26' W 009°07'0 0.0
2017-Sep-07 16:16N 38°26' W 009°07'0 0.0
2017-Sep-07 16:00N 38°26' W 009°07'0 0.0
2017-Sep-07 10:13N 38°26' W 009°07'0 0.0
2017-Sep-07 10:00N 38°26' W 009°07'0 0.0
2017-Sep-07 09:27N 38°26' W 009°07'0 0.0
2017-Sep-07 09:00N 38°26' W 009°07'0 0.0
2017-Sep-07 08:26N 38°26' W 009°07'0 0.0
2017-Sep-07 07:59N 38°26' W 009°07'0 0.0
2017-Sep-07 07:29N 38°26' W 009°07'19 0.5
2017-Sep-05 20:37N 38°08' W 008°59'2 8.3
2017-Sep-05 20:23N 38°06' W 008°58'3 7.9
2017-Sep-05 20:00N 38°03' W 008°57'4 7.8
2017-Sep-05 19:31N 37°60' W 008°55'4 7.6
2017-Sep-05 19:01N 37°56' W 008°54'1 2.8
2017-Sep-05 18:30N 37°57' W 008°52'0 0.0
2017-Sep-05 18:01N 37°57' W 008°52'0 0.0
2017-Sep-05 17:30N 37°57' W 008°52'2 3.5
2017-Sep-05 17:00N 37°56' W 008°54'4 9.0
2017-Sep-05 16:30N 37°56' W 008°60'4 8.6
2017-Sep-05 16:01N 37°57' W 009°05'4 8.5
2017-Sep-05 15:30N 37°57' W 009°11'3 4.9
2017-Sep-05 15:00N 37°58' W 009°14'1 1.7
2017-Sep-05 14:30N 37°57' W 009°14'2 2.8
2017-Sep-05 13:44N 37°55' W 009°14'1 2.8
2017-Sep-05 13:29N 37°54' W 009°14'1 2.8
2017-Sep-05 13:00N 37°53' W 009°14'1 2.8
2017-Sep-05 12:30N 37°51' W 009°15'3 2.8
2017-Sep-05 11:35N 37°49' W 009°15'0 2.8
2017-Sep-05 11:28N 37°48' W 009°15'1 2.8
2017-Sep-05 10:59N 37°47' W 009°15'1 0.5
2017-Sep-05 09:38N 37°46' W 009°15'1 2.9
2017-Sep-05 09:27N 37°47' W 009°15'1 2.9
2017-Sep-05 09:00N 37°48' W 009°15'5 1.0
2017-Sep-05 03:48N 37°47' W 009°09'1 3.4
2017-Sep-05 03:30N 37°48' W 009°09'2 3.7
2017-Sep-05 03:01N 37°50' W 009°09'2 3.9
2017-Sep-05 02:31N 37°52' W 009°09'2 3.7
2017-Sep-05 02:00N 37°54' W 009°09'2 3.4
2017-Sep-05 01:31N 37°56' W 009°09'2 3.7
2017-Sep-05 01:01N 37°58' W 009°09'2 3.9
2017-Sep-05 00:30N 37°60' W 009°09'2 3.9
2017-Sep-05 00:01N 38°02' W 009°09'2 4.0
2017-Sep-04 23:30N 38°04' W 009°09'0 0.5
2017-Sep-04 23:00N 38°04' W 009°10'1 1.6
2017-Sep-04 22:31N 38°03' W 009°10'1 2.9
2017-Sep-04 22:00N 38°02' W 009°11'1 2.9
2017-Sep-04 21:31N 38°00' W 009°12'1 3.0
2017-Sep-04 21:01N 37°59' W 009°13'1 3.0
2017-Sep-04 20:31N 37°58' W 009°14'2 3.0
2017-Sep-04 20:00N 37°56' W 009°14'2 3.8
2017-Sep-04 19:31N 37°54' W 009°15'2 4.7
2017-Sep-04 19:00N 37°57' W 009°13'3 5.2
2017-Sep-04 18:31N 37°59' W 009°13'0 0.8
2017-Sep-04 18:01N 37°59' W 009°13'1 2.7
2017-Sep-04 17:31N 37°58' W 009°14'1 2.7
2017-Sep-04 17:00N 37°56' W 009°14'2 2.7
2017-Sep-04 16:27N 37°55' W 009°14'1 2.8
2017-Sep-04 16:00N 37°54' W 009°14'1 2.8
2017-Sep-04 15:30N 37°52' W 009°14'1 2.9
2017-Sep-04 15:00N 37°51' W 009°15'1 0.8
2017-Sep-04 14:13N 37°51' W 009°15'1 2.8
2017-Sep-04 13:59N 37°52' W 009°15'1 2.8
2017-Sep-04 13:30N 37°53' W 009°15'1 2.8
2017-Sep-04 13:00N 37°55' W 009°15'3 3.3
2017-Sep-04 12:13N 37°57' W 009°15'0 1.9
2017-Sep-04 12:01N 37°57' W 009°14'0 0.9
2017-Sep-04 11:30N 37°57' W 009°14'3 3.0
2017-Sep-04 10:28N 37°54' W 009°14'1 3.0
2017-Sep-04 10:00N 37°52' W 009°14'1 2.9
2017-Sep-04 09:29N 37°51' W 009°15'2 2.9
2017-Sep-04 08:44N 37°49' W 009°15'  

Dump ship's entire track history